sensor_id;sensor_type;location;lat;lon;timestamp;pressure;altitude;pressure_sealevel;temperature;humidity
70544;BME280;58097;48.364;-1.224;2024-03-25T00:00:33;98976.22;;;6.40;100.00
70544;BME280;58097;48.364;-1.224;2024-03-25T00:02:59;98961.38;;;6.33;100.00
70544;BME280;58097;48.364;-1.224;2024-03-25T00:05:24;98962.72;;;6.29;100.00
70544;BME280;58097;48.364;-1.224;2024-03-25T00:07:51;98954.63;;;6.27;100.00
70544;BME280;58097;48.364;-1.224;2024-03-25T00:10:17;98949.63;;;6.22;100.00
70544;BME280;58097;48.364;-1.224;2024-03-25T00:12:43;98935.38;;;6.19;100.00
70544;BME280;58097;48.364;-1.224;2024-03-25T00:15:09;98931.06;;;6.16;100.00
70544;BME280;58097;48.364;-1.224;2024-03-25T00:17:34;98920.41;;;6.13;100.00
70544;BME280;58097;48.364;-1.224;2024-03-25T00:19:59;98923.63;;;6.09;100.00
70544;BME280;58097;48.364;-1.224;2024-03-25T00:22:25;98932.88;;;6.08;100.00
70544;BME280;58097;48.364;-1.224;2024-03-25T00:24:51;98928.53;;;6.05;100.00
70544;BME280;58097;48.364;-1.224;2024-03-25T00:27:17;98933.16;;;6.05;100.00
70544;BME280;58097;48.364;-1.224;2024-03-25T00:29:42;98926.56;;;5.98;100.00
70544;BME280;58097;48.364;-1.224;2024-03-25T00:32:08;98912.16;;;5.96;100.00
70544;BME280;58097;48.364;-1.224;2024-03-25T00:34:34;98912.47;;;5.93;100.00
70544;BME280;58097;48.364;-1.224;2024-03-25T00:37:00;98913.78;;;5.88;100.00
70544;BME280;58097;48.364;-1.224;2024-03-25T00:39:26;98913.06;;;5.86;100.00
70544;BME280;58097;48.364;-1.224;2024-03-25T00:41:52;98914.25;;;5.84;100.00
70544;BME280;58097;48.364;-1.224;2024-03-25T00:44:17;98908.22;;;5.80;100.00
70544;BME280;58097;48.364;-1.224;2024-03-25T00:46:43;98898.28;;;5.79;100.00
70544;BME280;58097;48.364;-1.224;2024-03-25T00:49:09;98898.66;;;5.84;100.00
70544;BME280;58097;48.364;-1.224;2024-03-25T00:51:35;98900.53;;;5.84;100.00
70544;BME280;58097;48.364;-1.224;2024-03-25T00:54:01;98889.75;;;5.82;100.00
70544;BME280;58097;48.364;-1.224;2024-03-25T00:56:26;98880.50;;;5.83;100.00
70544;BME280;58097;48.364;-1.224;2024-03-25T00:58:51;98871.56;;;5.81;100.00
70544;BME280;58097;48.364;-1.224;2024-03-25T01:01:17;98873.13;;;5.84;100.00
70544;BME280;58097;48.364;-1.224;2024-03-25T01:03:43;98867.50;;;5.85;100.00
70544;BME280;58097;48.364;-1.224;2024-03-25T01:06:08;98859.81;;;5.89;100.00
70544;BME280;58097;48.364;-1.224;2024-03-25T01:08:34;98850.00;;;5.86;100.00
70544;BME280;58097;48.364;-1.224;2024-03-25T01:10:59;98848.28;;;5.85;100.00
70544;BME280;58097;48.364;-1.224;2024-03-25T01:13:25;98836.31;;;5.86;100.00
70544;BME280;58097;48.364;-1.224;2024-03-25T01:15:51;98830.53;;;5.89;100.00
70544;BME280;58097;48.364;-1.224;2024-03-25T01:18:17;98828.50;;;5.92;100.00
70544;BME280;58097;48.364;-1.224;2024-03-25T01:20:42;98814.84;;;6.00;100.00
70544;BME280;58097;48.364;-1.224;2024-03-25T01:23:08;98805.28;;;6.04;100.00
70544;BME280;58097;48.364;-1.224;2024-03-25T01:25:33;98805.28;;;6.04;100.00
70544;BME280;58097;48.364;-1.224;2024-03-25T01:27:58;98811.88;;;6.11;100.00
70544;BME280;58097;48.364;-1.224;2024-03-25T01:30:24;98800.09;;;6.18;100.00
70544;BME280;58097;48.364;-1.224;2024-03-25T01:32:49;98794.28;;;6.21;100.00
70544;BME280;58097;48.364;-1.224;2024-03-25T01:35:15;98785.72;;;6.25;100.00
70544;BME280;58097;48.364;-1.224;2024-03-25T01:37:41;98782.50;;;6.29;100.00
70544;BME280;58097;48.364;-1.224;2024-03-25T01:40:07;98785.75;;;6.33;100.00
70544;BME280;58097;48.364;-1.224;2024-03-25T01:42:32;98779.25;;;6.34;100.00
70544;BME280;58097;48.364;-1.224;2024-03-25T01:44:58;98779.81;;;6.37;100.00
70544;BME280;58097;48.364;-1.224;2024-03-25T01:47:23;98768.19;;;6.43;100.00
70544;BME280;58097;48.364;-1.224;2024-03-25T01:49:49;98773.34;;;6.46;100.00
70544;BME280;58097;48.364;-1.224;2024-03-25T01:52:19;98763.75;;;6.50;100.00
70544;BME280;58097;48.364;-1.224;2024-03-25T01:54:45;98763.44;;;6.53;100.00
70544;BME280;58097;48.364;-1.224;2024-03-25T01:57:11;98753.81;;;6.49;100.00
70544;BME280;58097;48.364;-1.224;2024-03-25T01:59:38;98762.03;;;6.49;100.00
70544;BME280;58097;48.364;-1.224;2024-03-25T02:02:04;98764.75;;;6.41;100.00
70544;BME280;58097;48.364;-1.224;2024-03-25T02:04:31;98763.19;;;6.39;100.00
70544;BME280;58097;48.364;-1.224;2024-03-25T02:06:56;98754.25;;;6.37;100.00
70544;BME280;58097;48.364;-1.224;2024-03-25T02:09:23;98744.16;;;6.37;100.00
70544;BME280;58097;48.364;-1.224;2024-03-25T02:11:50;98738.25;;;6.32;100.00
70544;BME280;58097;48.364;-1.224;2024-03-25T02:14:16;98737.56;;;6.30;100.00
70544;BME280;58097;48.364;-1.224;2024-03-25T02:16:41;98739.78;;;6.27;100.00
70544;BME280;58097;48.364;-1.224;2024-03-25T02:19:07;98722.47;;;6.26;100.00
70544;BME280;58097;48.364;-1.224;2024-03-25T02:21:35;98707.88;;;6.26;100.00
70544;BME280;58097;48.364;-1.224;2024-03-25T02:24:02;98705.13;;;6.26;100.00
70544;BME280;58097;48.364;-1.224;2024-03-25T02:26:30;98709.78;;;6.25;100.00
70544;BME280;58097;48.364;-1.224;2024-03-25T02:28:56;98712.31;;;6.18;100.00
70544;BME280;58097;48.364;-1.224;2024-03-25T02:31:21;98703.38;;;6.16;100.00
70544;BME280;58097;48.364;-1.224;2024-03-25T02:33:47;98682.97;;;6.11;100.00
70544;BME280;58097;48.364;-1.224;2024-03-25T02:36:12;98690.50;;;6.09;100.00
70544;BME280;58097;48.364;-1.224;2024-03-25T02:38:37;98680.53;;;6.08;100.00
70544;BME280;58097;48.364;-1.224;2024-03-25T02:41:03;98676.06;;;6.07;100.00
70544;BME280;58097;48.364;-1.224;2024-03-25T02:43:29;98661.19;;;6.09;100.00
70544;BME280;58097;48.364;-1.224;2024-03-25T02:45:55;98656.00;;;6.06;100.00
70544;BME280;58097;48.364;-1.224;2024-03-25T02:48:21;98659.22;;;6.02;100.00
70544;BME280;58097;48.364;-1.224;2024-03-25T02:50:46;98661.59;;;5.97;100.00
70544;BME280;58097;48.364;-1.224;2024-03-25T02:53:11;98647.91;;;5.97;99.88
70544;BME280;58097;48.364;-1.224;2024-03-25T02:55:37;98639.84;;;5.95;99.78
70544;BME280;58097;48.364;-1.224;2024-03-25T02:58:02;98636.16;;;5.86;100.00
70544;BME280;58097;48.364;-1.224;2024-03-25T03:00:27;98637.88;;;5.87;100.00
70544;BME280;58097;48.364;-1.224;2024-03-25T03:02:53;98634.44;;;5.85;100.00
70544;BME280;58097;48.364;-1.224;2024-03-25T03:05:18;98619.56;;;5.88;100.00
70544;BME280;58097;48.364;-1.224;2024-03-25T03:07:43;98628.50;;;5.90;99.84
70544;BME280;58097;48.364;-1.224;2024-03-25T03:10:09;98615.78;;;5.89;99.65
70544;BME280;58097;48.364;-1.224;2024-03-25T03:12:34;98614.94;;;5.88;99.81
70544;BME280;58097;48.364;-1.224;2024-03-25T03:15:00;98608.28;;;5.91;99.61
70544;BME280;58097;48.364;-1.224;2024-03-25T03:17:25;98612.50;;;5.85;99.98
70544;BME280;58097;48.364;-1.224;2024-03-25T03:19:50;98615.94;;;5.87;99.71
70544;BME280;58097;48.364;-1.224;2024-03-25T03:22:16;98602.97;;;5.89;99.80
70544;BME280;58097;48.364;-1.224;2024-03-25T03:24:41;98595.38;;;5.83;99.67
70544;BME280;58097;48.364;-1.224;2024-03-25T03:27:07;98587.69;;;5.87;99.60
70544;BME280;58097;48.364;-1.224;2024-03-25T03:29:32;98580.63;;;5.84;100.00
70544;BME280;58097;48.364;-1.224;2024-03-25T03:31:58;98575.31;;;5.83;99.95
70544;BME280;58097;48.364;-1.224;2024-03-25T03:34:23;98579.78;;;5.84;99.98
70544;BME280;58097;48.364;-1.224;2024-03-25T03:36:49;98569.66;;;5.84;99.57
70544;BME280;58097;48.364;-1.224;2024-03-25T03:39:15;98558.53;;;5.86;99.52
70544;BME280;58097;48.364;-1.224;2024-03-25T03:41:40;98554.09;;;5.85;99.50
70544;BME280;58097;48.364;-1.224;2024-03-25T03:44:06;98546.03;;;5.83;100.00
70544;BME280;58097;48.364;-1.224;2024-03-25T03:46:31;98535.75;;;5.85;99.73
70544;BME280;58097;48.364;-1.224;2024-03-25T03:48:57;98526.50;;;5.86;99.72
70544;BME280;58097;48.364;-1.224;2024-03-25T03:51:22;98526.50;;;5.86;99.60
70544;BME280;58097;48.364;-1.224;2024-03-25T03:53:47;98519.13;;;5.87;99.67
70544;BME280;58097;48.364;-1.224;2024-03-25T03:56:13;98511.59;;;5.89;99.82
70544;BME280;58097;48.364;-1.224;2024-03-25T03:58:38;98516.22;;;5.88;99.77
70544;BME280;58097;48.364;-1.224;2024-03-25T04:01:03;98511.47;;;5.90;99.52
70544;BME280;58097;48.364;-1.224;2024-03-25T04:03:29;98521.72;;;5.88;99.65
70544;BME280;58097;48.364;-1.224;2024-03-25T04:05:55;98520.84;;;5.88;99.37
70544;BME280;58097;48.364;-1.224;2024-03-25T04:08:21;98517.59;;;5.84;99.68
70544;BME280;58097;48.364;-1.224;2024-03-25T04:10:46;98510.56;;;5.82;99.42
70544;BME280;58097;48.364;-1.224;2024-03-25T04:13:12;98511.41;;;5.82;99.25
70544;BME280;58097;48.364;-1.224;2024-03-25T04:15:39;98511.56;;;5.81;99.93
70544;BME280;58097;48.364;-1.224;2024-03-25T04:18:05;98502.16;;;5.83;99.71
70544;BME280;58097;48.364;-1.224;2024-03-25T04:20:41;98494.63;;;5.85;99.92
70544;BME280;58097;48.364;-1.224;2024-03-25T04:23:07;98496.84;;;5.82;100.00
70544;BME280;58097;48.364;-1.224;2024-03-25T04:25:33;98487.75;;;5.81;100.00
70544;BME280;58097;48.364;-1.224;2024-03-25T04:27:59;98473.38;;;5.79;100.00
70544;BME280;58097;48.364;-1.224;2024-03-25T04:30:25;98482.75;;;5.77;100.00
70544;BME280;58097;48.364;-1.224;2024-03-25T04:32:51;98477.13;;;5.78;100.00
70544;BME280;58097;48.364;-1.224;2024-03-25T04:35:16;98467.03;;;5.79;100.00
70544;BME280;58097;48.364;-1.224;2024-03-25T04:37:41;98472.34;;;5.80;100.00
70544;BME280;58097;48.364;-1.224;2024-03-25T04:40:07;98472.88;;;5.84;100.00
70544;BME280;58097;48.364;-1.224;2024-03-25T04:42:33;98469.78;;;5.87;100.00
70544;BME280;58097;48.364;-1.224;2024-03-25T04:44:58;98473.22;;;5.89;100.00
70544;BME280;58097;48.364;-1.224;2024-03-25T04:47:24;98472.91;;;5.92;100.00
70544;BME280;58097;48.364;-1.224;2024-03-25T04:49:49;98459.22;;;5.92;100.00
70544;BME280;58097;48.364;-1.224;2024-03-25T04:52:15;98460.91;;;5.93;100.00
70544;BME280;58097;48.364;-1.224;2024-03-25T04:54:44;98453.22;;;5.97;100.00
70544;BME280;58097;48.364;-1.224;2024-03-25T04:57:09;98449.78;;;5.95;100.00
70544;BME280;58097;48.364;-1.224;2024-03-25T04:59:34;98451.28;;;5.89;100.00
70544;BME280;58097;48.364;-1.224;2024-03-25T05:02:00;98441.50;;;5.86;100.00
70544;BME280;58097;48.364;-1.224;2024-03-25T05:04:25;98453.34;;;5.87;100.00
70544;BME280;58097;48.364;-1.224;2024-03-25T05:06:50;98436.38;;;5.83;100.00
70544;BME280;58097;48.364;-1.224;2024-03-25T05:09:16;98441.84;;;5.83;100.00
70544;BME280;58097;48.364;-1.224;2024-03-25T05:11:42;98443.91;;;5.81;100.00
70544;BME280;58097;48.364;-1.224;2024-03-25T05:14:07;98440.09;;;5.74;100.00
70544;BME280;58097;48.364;-1.224;2024-03-25T05:16:33;98437.50;;;5.73;100.00
70544;BME280;58097;48.364;-1.224;2024-03-25T05:18:58;98434.44;;;5.76;100.00
70544;BME280;58097;48.364;-1.224;2024-03-25T05:21:24;98426.06;;;5.77;100.00
70544;BME280;58097;48.364;-1.224;2024-03-25T05:23:49;98419.72;;;5.77;100.00
70544;BME280;58097;48.364;-1.224;2024-03-25T05:26:14;98428.09;;;5.75;100.00
70544;BME280;58097;48.364;-1.224;2024-03-25T05:28:40;98428.28;;;5.74;100.00
70544;BME280;58097;48.364;-1.224;2024-03-25T05:31:10;98417.81;;;5.77;100.00
70544;BME280;58097;48.364;-1.224;2024-03-25T05:33:35;98414.78;;;5.80;100.00
70544;BME280;58097;48.364;-1.224;2024-03-25T05:36:01;98407.88;;;5.76;100.00
70544;BME280;58097;48.364;-1.224;2024-03-25T05:38:27;98400.88;;;5.74;100.00
70544;BME280;58097;48.364;-1.224;2024-03-25T05:40:53;98403.44;;;5.75;100.00
70544;BME280;58097;48.364;-1.224;2024-03-25T05:43:19;98400.88;;;5.74;100.00
70544;BME280;58097;48.364;-1.224;2024-03-25T05:45:54;98398.47;;;5.71;100.00
70544;BME280;58097;48.364;-1.224;2024-03-25T05:48:20;98389.03;;;5.65;100.00
70544;BME280;58097;48.364;-1.224;2024-03-25T05:50:46;98386.97;;;5.67;100.00
70544;BME280;58097;48.364;-1.224;2024-03-25T05:53:11;98379.28;;;5.71;100.00
70544;BME280;58097;48.364;-1.224;2024-03-25T05:55:37;98393.31;;;5.68;100.00
70544;BME280;58097;48.364;-1.224;2024-03-25T05:58:02;98391.94;;;5.72;100.00
70544;BME280;58097;48.364;-1.224;2024-03-25T06:00:32;98382.88;;;5.71;100.00
70544;BME280;58097;48.364;-1.224;2024-03-25T06:02:58;98377.72;;;5.68;100.00
70544;BME280;58097;48.364;-1.224;2024-03-25T06:05:23;98383.88;;;5.62;100.00
70544;BME280;58097;48.364;-1.224;2024-03-25T06:07:49;98377.69;;;5.52;100.00
70544;BME280;58097;48.364;-1.224;2024-03-25T06:10:14;98375.66;;;5.54;100.00
70544;BME280;58097;48.364;-1.224;2024-03-25T06:12:40;98377.38;;;5.55;100.00
70544;BME280;58097;48.364;-1.224;2024-03-25T06:15:06;98369.78;;;5.49;100.00
70544;BME280;58097;48.364;-1.224;2024-03-25T06:17:32;98372.00;;;5.45;100.00
70544;BME280;58097;48.364;-1.224;2024-03-25T06:19:57;98367.38;;;5.46;100.00
70544;BME280;58097;48.364;-1.224;2024-03-25T06:22:22;98371.16;;;5.45;100.00
70544;BME280;58097;48.364;-1.224;2024-03-25T06:24:48;98371.16;;;5.45;100.00
70544;BME280;58097;48.364;-1.224;2024-03-25T06:27:15;98349.44;;;5.51;100.00
70544;BME280;58097;48.364;-1.224;2024-03-25T06:29:41;98349.97;;;5.55;100.00
70544;BME280;58097;48.364;-1.224;2024-03-25T06:32:06;98346.03;;;5.57;100.00
70544;BME280;58097;48.364;-1.224;2024-03-25T06:34:50;98336.09;;;5.56;100.00
70544;BME280;58097;48.364;-1.224;2024-03-25T06:37:15;98333.53;;;5.55;100.00
70544;BME280;58097;48.364;-1.224;2024-03-25T06:39:40;98324.97;;;5.50;100.00
70544;BME280;58097;48.364;-1.224;2024-03-25T06:42:06;98314.00;;;5.50;100.00
70544;BME280;58097;48.364;-1.224;2024-03-25T06:44:32;98310.72;;;5.46;100.00
70544;BME280;58097;48.364;-1.224;2024-03-25T06:46:57;98305.41;;;5.45;100.00
70544;BME280;58097;48.364;-1.224;2024-03-25T06:49:22;98302.31;;;5.48;100.00
70544;BME280;58097;48.364;-1.224;2024-03-25T06:51:48;98293.75;;;5.43;100.00
70544;BME280;58097;48.364;-1.224;2024-03-25T06:54:13;98285.88;;;5.48;100.00
70544;BME280;58097;48.364;-1.224;2024-03-25T06:56:38;98282.13;;;5.49;100.00
70544;BME280;58097;48.364;-1.224;2024-03-25T06:59:04;98273.06;;;5.56;100.00
70544;BME280;58097;48.364;-1.224;2024-03-25T07:01:29;98276.16;;;5.62;100.00
70544;BME280;58097;48.364;-1.224;2024-03-25T07:03:54;98266.06;;;5.70;100.00
70544;BME280;58097;48.364;-1.224;2024-03-25T07:06:19;98262.44;;;5.78;100.00
70544;BME280;58097;48.364;-1.224;2024-03-25T07:08:45;98265.91;;;5.88;100.00
70544;BME280;58097;48.364;-1.224;2024-03-25T07:11:13;98252.91;;;5.90;100.00
70544;BME280;58097;48.364;-1.224;2024-03-25T07:13:38;98257.16;;;5.84;100.00
70544;BME280;58097;48.364;-1.224;2024-03-25T07:16:03;98257.00;;;6.02;100.00
70544;BME280;58097;48.364;-1.224;2024-03-25T07:18:29;98261.09;;;6.06;100.00
70544;BME280;58097;48.364;-1.224;2024-03-25T07:20:54;98249.28;;;6.06;100.00
70544;BME280;58097;48.364;-1.224;2024-03-25T07:23:19;98254.41;;;6.17;100.00
70544;BME280;58097;48.364;-1.224;2024-03-25T07:25:44;98256.47;;;6.23;100.00
70544;BME280;58097;48.364;-1.224;2024-03-25T07:28:10;98241.69;;;6.40;100.00
70544;BME280;58097;48.364;-1.224;2024-03-25T07:30:35;98242.00;;;6.45;100.00
70544;BME280;58097;48.364;-1.224;2024-03-25T07:33:00;98230.00;;;6.46;100.00
70544;BME280;58097;48.364;-1.224;2024-03-25T07:35:26;98227.75;;;6.50;100.00
70544;BME280;58097;48.364;-1.224;2024-03-25T07:37:51;98220.16;;;6.60;100.00
70544;BME280;58097;48.364;-1.224;2024-03-25T07:40:21;98223.09;;;6.59;100.00
70544;BME280;58097;48.364;-1.224;2024-03-25T07:42:48;98222.41;;;6.57;100.00
70544;BME280;58097;48.364;-1.224;2024-03-25T07:45:14;98212.47;;;6.56;100.00
70544;BME280;58097;48.364;-1.224;2024-03-25T07:47:39;98211.75;;;6.62;100.00
70544;BME280;58097;48.364;-1.224;2024-03-25T07:50:05;98210.72;;;6.71;100.00
70544;BME280;58097;48.364;-1.224;2024-03-25T07:52:31;98207.28;;;6.69;100.00
70544;BME280;58097;48.364;-1.224;2024-03-25T07:54:56;98210.00;;;6.77;100.00
70544;BME280;58097;48.364;-1.224;2024-03-25T07:57:22;98212.69;;;6.85;100.00
70544;BME280;58097;48.364;-1.224;2024-03-25T07:59:48;98207.50;;;6.98;100.00
70544;BME280;58097;48.364;-1.224;2024-03-25T08:02:13;98201.81;;;7.00;100.00
70544;BME280;58097;48.364;-1.224;2024-03-25T08:04:39;98199.13;;;7.14;100.00
70544;BME280;58097;48.364;-1.224;2024-03-25T08:07:04;98193.25;;;7.26;100.00
70544;BME280;58097;48.364;-1.224;2024-03-25T08:09:30;98177.19;;;7.37;100.00
70544;BME280;58097;48.364;-1.224;2024-03-25T08:11:56;98168.28;;;7.58;100.00
70544;BME280;58097;48.364;-1.224;2024-03-25T08:14:21;98158.41;;;7.64;100.00
70544;BME280;58097;48.364;-1.224;2024-03-25T08:16:47;98155.03;;;7.76;100.00
70544;BME280;58097;48.364;-1.224;2024-03-25T08:19:12;98155.66;;;8.01;100.00
70544;BME280;58097;48.364;-1.224;2024-03-25T08:21:38;98155.47;;;8.32;100.00
70544;BME280;58097;48.364;-1.224;2024-03-25T08:24:03;98163.59;;;8.49;100.00
70544;BME280;58097;48.364;-1.224;2024-03-25T08:26:29;98158.56;;;8.52;100.00
70544;BME280;58097;48.364;-1.224;2024-03-25T08:28:54;98164.34;;;8.43;100.00
70544;BME280;58097;48.364;-1.224;2024-03-25T08:31:20;98161.13;;;8.54;100.00
70544;BME280;58097;48.364;-1.224;2024-03-25T08:33:45;98161.56;;;8.72;100.00
70544;BME280;58097;48.364;-1.224;2024-03-25T08:36:10;98146.25;;;8.84;100.00
70544;BME280;58097;48.364;-1.224;2024-03-25T08:38:36;98153.09;;;8.88;100.00
70544;BME280;58097;48.364;-1.224;2024-03-25T08:41:01;98158.31;;;8.98;100.00
70544;BME280;58097;48.364;-1.224;2024-03-25T08:43:26;98144.41;;;9.06;100.00
70544;BME280;58097;48.364;-1.224;2024-03-25T08:45:52;98145.47;;;9.26;100.00
70544;BME280;58097;48.364;-1.224;2024-03-25T08:48:18;98145.56;;;9.54;100.00
70544;BME280;58097;48.364;-1.224;2024-03-25T08:50:43;98145.13;;;9.79;100.00
70544;BME280;58097;48.364;-1.224;2024-03-25T08:53:08;98143.81;;;9.75;97.82
70544;BME280;58097;48.364;-1.224;2024-03-25T08:55:34;98132.50;;;9.91;98.17
70544;BME280;58097;48.364;-1.224;2024-03-25T08:57:59;98118.94;;;9.96;95.33
70544;BME280;58097;48.364;-1.224;2024-03-25T09:00:25;98120.56;;;9.84;89.42
70544;BME280;58097;48.364;-1.224;2024-03-25T09:02:50;98109.03;;;10.08;95.38
70544;BME280;58097;48.364;-1.224;2024-03-25T09:05:16;98102.00;;;9.99;90.51
70544;BME280;58097;48.364;-1.224;2024-03-25T09:07:44;98100.56;;;10.10;91.63
70544;BME280;58097;48.364;-1.224;2024-03-25T09:10:10;98099.25;;;10.34;93.94
70544;BME280;58097;48.364;-1.224;2024-03-25T09:12:56;98098.97;;;10.57;90.96
70544;BME280;58097;48.364;-1.224;2024-03-25T09:15:21;98088.16;;;10.62;89.20
70544;BME280;58097;48.364;-1.224;2024-03-25T09:17:46;98087.28;;;10.61;87.15
70544;BME280;58097;48.364;-1.224;2024-03-25T09:20:12;98081.97;;;10.60;85.93
70544;BME280;58097;48.364;-1.224;2024-03-25T09:22:45;98069.81;;;10.47;86.72
70544;BME280;58097;48.364;-1.224;2024-03-25T09:25:12;98068.59;;;10.63;89.80
70544;BME280;58097;48.364;-1.224;2024-03-25T09:27:38;98078.44;;;10.72;86.34
70544;BME280;58097;48.364;-1.224;2024-03-25T09:30:05;98069.41;;;11.11;92.90
70544;BME280;58097;48.364;-1.224;2024-03-25T09:32:31;98064.75;;;11.32;88.26
70544;BME280;58097;48.364;-1.224;2024-03-25T09:34:57;98059.66;;;11.42;86.87
70544;BME280;58097;48.364;-1.224;2024-03-25T09:37:22;98070.31;;;11.58;86.17
70544;BME280;58097;48.364;-1.224;2024-03-25T09:39:47;98061.38;;;11.69;87.41
70544;BME280;58097;48.364;-1.224;2024-03-25T09:42:15;98054.16;;;11.62;79.18
70544;BME280;58097;48.364;-1.224;2024-03-25T09:44:41;98048.16;;;11.71;84.22
70544;BME280;58097;48.364;-1.224;2024-03-25T09:47:07;98052.44;;;11.61;79.79
70544;BME280;58097;48.364;-1.224;2024-03-25T09:49:35;98043.06;;;11.75;82.40
70544;BME280;58097;48.364;-1.224;2024-03-25T09:52:01;98042.63;;;11.71;78.65
70544;BME280;58097;48.364;-1.224;2024-03-25T09:54:27;98038.19;;;11.64;74.23
70544;BME280;58097;48.364;-1.224;2024-03-25T09:56:53;98038.81;;;11.59;74.12
70544;BME280;58097;48.364;-1.224;2024-03-25T09:59:18;98020.72;;;11.70;76.34
70544;BME280;58097;48.364;-1.224;2024-03-25T10:01:45;98019.25;;;11.87;74.89
70544;BME280;58097;48.364;-1.224;2024-03-25T10:04:10;98012.81;;;12.06;74.76
70544;BME280;58097;48.364;-1.224;2024-03-25T10:06:35;98018.97;;;12.08;72.99
70544;BME280;58097;48.364;-1.224;2024-03-25T10:09:05;98007.47;;;12.18;71.15
70544;BME280;58097;48.364;-1.224;2024-03-25T10:11:31;98004.84;;;12.30;74.26
70544;BME280;58097;48.364;-1.224;2024-03-25T10:14:00;97993.31;;;12.39;70.45
70544;BME280;58097;48.364;-1.224;2024-03-25T10:16:26;97978.94;;;12.62;75.42
70544;BME280;58097;48.364;-1.224;2024-03-25T10:18:51;97977.50;;;12.53;71.28
70544;BME280;58097;48.364;-1.224;2024-03-25T10:21:19;97977.34;;;12.35;64.46
70544;BME280;58097;48.364;-1.224;2024-03-25T10:23:45;97962.22;;;12.37;65.28
70544;BME280;58097;48.364;-1.224;2024-03-25T10:26:25;97953.00;;;12.50;69.01
70544;BME280;58097;48.364;-1.224;2024-03-25T10:29:00;97952.66;;;12.71;70.19
70544;BME280;58097;48.364;-1.224;2024-03-25T10:31:25;97938.69;;;12.53;64.76
70544;BME280;58097;48.364;-1.224;2024-03-25T10:33:51;97932.41;;;12.71;67.45
70544;BME280;58097;48.364;-1.224;2024-03-25T10:36:17;97924.28;;;12.76;65.10
70544;BME280;58097;48.364;-1.224;2024-03-25T10:38:44;97917.56;;;12.90;64.73
70544;BME280;58097;48.364;-1.224;2024-03-25T10:41:13;97907.16;;;13.17;69.23
70544;BME280;58097;48.364;-1.224;2024-03-25T10:43:41;97907.69;;;13.01;60.89
70544;BME280;58097;48.364;-1.224;2024-03-25T10:46:08;97910.94;;;12.91;63.71
70544;BME280;58097;48.364;-1.224;2024-03-25T10:48:39;97893.53;;;12.84;60.20
70544;BME280;58097;48.364;-1.224;2024-03-25T10:51:07;97902.06;;;12.83;62.31
70544;BME280;58097;48.364;-1.224;2024-03-25T10:53:36;97900.81;;;12.79;63.83
70544;BME280;58097;48.364;-1.224;2024-03-25T10:56:03;97888.06;;;13.02;64.87
70544;BME280;58097;48.364;-1.224;2024-03-25T10:58:31;97882.91;;;13.06;62.12
70544;BME280;58097;48.364;-1.224;2024-03-25T11:00:57;97874.13;;;13.09;62.99
70544;BME280;58097;48.364;-1.224;2024-03-25T11:03:24;97865.19;;;13.07;60.41
70544;BME280;58097;48.364;-1.224;2024-03-25T11:05:50;97863.03;;;13.09;63.45
70544;BME280;58097;48.364;-1.224;2024-03-25T11:08:16;97857.00;;;13.19;63.53
70544;BME280;58097;48.364;-1.224;2024-03-25T11:10:46;97855.06;;;13.19;60.38
70544;BME280;58097;48.364;-1.224;2024-03-25T11:13:21;97854.81;;;13.46;62.51
70544;BME280;58097;48.364;-1.224;2024-03-25T11:15:48;97848.72;;;13.55;59.29
70544;BME280;58097;48.364;-1.224;2024-03-25T11:18:17;97840.13;;;13.20;56.28
70544;BME280;58097;48.364;-1.224;2024-03-25T11:20:44;97825.75;;;13.05;57.89
70544;BME280;58097;48.364;-1.224;2024-03-25T11:23:13;97817.53;;;13.17;58.17
70544;BME280;58097;48.364;-1.224;2024-03-25T11:25:39;97817.81;;;13.09;57.75
70544;BME280;58097;48.364;-1.224;2024-03-25T11:28:06;97812.75;;;13.06;55.64
70544;BME280;58097;48.364;-1.224;2024-03-25T11:30:32;97806.75;;;13.09;58.24
70544;BME280;58097;48.364;-1.224;2024-03-25T11:33:01;97802.81;;;13.16;57.97
70544;BME280;58097;48.364;-1.224;2024-03-25T11:35:27;97792.53;;;12.98;56.30
70544;BME280;58097;48.364;-1.224;2024-03-25T11:37:53;97789.00;;;13.35;61.55
70544;BME280;58097;48.364;-1.224;2024-03-25T11:40:18;97784.53;;;13.52;61.78
70544;BME280;58097;48.364;-1.224;2024-03-25T11:42:44;97775.25;;;13.76;62.66
70544;BME280;58097;48.364;-1.224;2024-03-25T11:45:20;97767.84;;;13.88;59.67
70544;BME280;58097;48.364;-1.224;2024-03-25T11:47:47;97768.59;;;13.95;59.45
70544;BME280;58097;48.364;-1.224;2024-03-25T11:50:17;97761.34;;;13.94;56.19
70544;BME280;58097;48.364;-1.224;2024-03-25T11:52:43;97761.94;;;13.67;56.01
70544;BME280;58097;48.364;-1.224;2024-03-25T11:55:09;97741.72;;;13.78;59.28
70544;BME280;58097;48.364;-1.224;2024-03-25T11:57:38;97741.66;;;13.66;55.49
70544;BME280;58097;48.364;-1.224;2024-03-25T12:00:04;97741.19;;;13.69;58.41
70544;BME280;58097;48.364;-1.224;2024-03-25T12:02:31;97730.22;;;13.74;60.16
70544;BME280;58097;48.364;-1.224;2024-03-25T12:04:57;97728.69;;;13.78;59.97
70544;BME280;58097;48.364;-1.224;2024-03-25T12:07:22;97726.84;;;13.72;57.75
70544;BME280;58097;48.364;-1.224;2024-03-25T12:09:47;97725.63;;;13.50;57.76
70544;BME280;58097;48.364;-1.224;2024-03-25T12:12:32;97722.41;;;13.53;56.63
70544;BME280;58097;48.364;-1.224;2024-03-25T12:14:58;97718.16;;;13.50;56.05
70544;BME280;58097;48.364;-1.224;2024-03-25T12:17:24;97709.59;;;13.70;61.00
70544;BME280;58097;48.364;-1.224;2024-03-25T12:19:59;97699.22;;;13.77;60.93
70544;BME280;58097;48.364;-1.224;2024-03-25T12:22:26;97700.75;;;13.91;60.20
70544;BME280;58097;48.364;-1.224;2024-03-25T12:24:52;97692.91;;;14.00;59.16
70544;BME280;58097;48.364;-1.224;2024-03-25T12:27:17;97685.97;;;14.21;61.85
70544;BME280;58097;48.364;-1.224;2024-03-25T12:29:42;97687.47;;;13.93;57.19
70544;BME280;58097;48.364;-1.224;2024-03-25T12:32:09;97688.41;;;13.87;58.11
70544;BME280;58097;48.364;-1.224;2024-03-25T12:34:35;97679.75;;;13.95;60.24
70544;BME280;58097;48.364;-1.224;2024-03-25T12:37:04;97677.75;;;13.84;58.81
70544;BME280;58097;48.364;-1.224;2024-03-25T12:39:34;97668.69;;;13.77;59.14
70544;BME280;58097;48.364;-1.224;2024-03-25T12:42:04;97663.50;;;13.69;59.02
70544;BME280;58097;48.364;-1.224;2024-03-25T12:44:30;97662.44;;;13.82;60.04